sensor_id;sensor_type;location;lat;lon;timestamp;pressure;altitude;pressure_sealevel;temperature;humidity
20013;BME280;10167;42.852;23.042;2022-07-23T00:03:58;95143.06;;;19.37;100.00
20013;BME280;10167;42.852;23.042;2022-07-23T00:06:26;95146.06;;;19.31;100.00
20013;BME280;10167;42.852;23.042;2022-07-23T00:08:53;95140.09;;;19.15;100.00
20013;BME280;10167;42.852;23.042;2022-07-23T00:11:21;95139.38;;;19.04;100.00
20013;BME280;10167;42.852;23.042;2022-07-23T00:13:49;95150.22;;;18.94;100.00
20013;BME280;10167;42.852;23.042;2022-07-23T00:16:16;95135.63;;;19.05;100.00
20013;BME280;10167;42.852;23.042;2022-07-23T00:18:44;95147.38;;;19.09;100.00
20013;BME280;10167;42.852;23.042;2022-07-23T00:26:15;95141.03;;;19.29;100.00
20013;BME280;10167;42.852;23.042;2022-07-23T00:28:42;95145.03;;;19.55;100.00
20013;BME280;10167;42.852;23.042;2022-07-23T00:31:10;95155.72;;;19.61;100.00
20013;BME280;10167;42.852;23.042;2022-07-23T00:33:37;95145.41;;;19.68;100.00
20013;BME280;10167;42.852;23.042;2022-07-23T00:36:06;95149.84;;;19.58;100.00
20013;BME280;10167;42.852;23.042;2022-07-23T00:38:33;95147.66;;;19.61;100.00
20013;BME280;10167;42.852;23.042;2022-07-23T00:41:01;95148.09;;;19.44;100.00
20013;BME280;10167;42.852;23.042;2022-07-23T00:46:19;95142.78;;;19.39;100.00
20013;BME280;10167;42.852;23.042;2022-07-23T00:48:47;95145.38;;;19.49;100.00
20013;BME280;10167;42.852;23.042;2022-07-23T00:51:15;95143.66;;;19.58;100.00
20013;BME280;10167;42.852;23.042;2022-07-23T00:53:43;95140.84;;;19.44;100.00
20013;BME280;10167;42.852;23.042;2022-07-23T00:56:12;95140.63;;;19.41;100.00
20013;BME280;10167;42.852;23.042;2022-07-23T00:58:40;95139.31;;;19.38;100.00
20013;BME280;10167;42.852;23.042;2022-07-23T01:01:11;95143.47;;;19.26;100.00
20013;BME280;10167;42.852;23.042;2022-07-23T01:08:49;95136.47;;;19.01;100.00
20013;BME280;10167;42.852;23.042;2022-07-23T01:11:18;95137.09;;;18.93;100.00
20013;BME280;10167;42.852;23.042;2022-07-23T01:13:47;95132.19;;;19.00;100.00
20013;BME280;10167;42.852;23.042;2022-07-23T01:16:15;95137.34;;;19.20;100.00
20013;BME280;10167;42.852;23.042;2022-07-23T01:18:42;95135.66;;;19.29;100.00
20013;BME280;10167;42.852;23.042;2022-07-23T01:21:11;95140.94;;;19.34;100.00
20013;BME280;10167;42.852;23.042;2022-07-23T01:23:41;95144.03;;;19.46;100.00
20013;BME280;10167;42.852;23.042;2022-07-23T01:31:18;95134.72;;;19.39;100.00
20013;BME280;10167;42.852;23.042;2022-07-23T01:33:47;95135.53;;;19.39;100.00
20013;BME280;10167;42.852;23.042;2022-07-23T01:36:15;95138.22;;;19.39;100.00
20013;BME280;10167;42.852;23.042;2022-07-23T01:38:42;95142.25;;;19.37;100.00
20013;BME280;10167;42.852;23.042;2022-07-23T01:41:10;95143.38;;;19.31;100.00
20013;BME280;10167;42.852;23.042;2022-07-23T01:43:40;95141.47;;;19.36;100.00
20013;BME280;10167;42.852;23.042;2022-07-23T01:46:08;95140.50;;;19.27;100.00
20013;BME280;10167;42.852;23.042;2022-07-23T01:54:07;95149.22;;;19.14;100.00
20013;BME280;10167;42.852;23.042;2022-07-23T01:56:35;95146.25;;;19.15;100.00
20013;BME280;10167;42.852;23.042;2022-07-23T01:59:03;95152.47;;;19.11;100.00
20013;BME280;10167;42.852;23.042;2022-07-23T02:01:31;95150.53;;;19.16;100.00
20013;BME280;10167;42.852;23.042;2022-07-23T02:03:59;95151.56;;;19.20;100.00
20013;BME280;10167;42.852;23.042;2022-07-23T02:06:27;95148.88;;;19.20;100.00
20013;BME280;10167;42.852;23.042;2022-07-23T02:08:54;95147.00;;;19.21;100.00
20013;BME280;10167;42.852;23.042;2022-07-23T02:16:26;95147.63;;;19.13;100.00
20013;BME280;10167;42.852;23.042;2022-07-23T02:18:53;95157.31;;;19.09;100.00
20013;BME280;10167;42.852;23.042;2022-07-23T02:21:21;95152.25;;;19.07;100.00
20013;BME280;10167;42.852;23.042;2022-07-23T02:23:49;95162.03;;;18.93;100.00
20013;BME280;10167;42.852;23.042;2022-07-23T02:26:16;95165.53;;;18.94;100.00
20013;BME280;10167;42.852;23.042;2022-07-23T02:28:50;95160.44;;;18.92;100.00
20013;BME280;10167;42.852;23.042;2022-07-23T02:31:19;95168.50;;;18.87;100.00
20013;BME280;10167;42.852;23.042;2022-07-23T02:38:52;95165.47;;;18.65;100.00
20013;BME280;10167;42.852;23.042;2022-07-23T02:41:19;95168.81;;;18.46;100.00
20013;BME280;10167;42.852;23.042;2022-07-23T02:43:47;95174.41;;;18.11;100.00
20013;BME280;10167;42.852;23.042;2022-07-23T02:46:15;95178.81;;;17.87;100.00
20013;BME280;10167;42.852;23.042;2022-07-23T02:48:43;95179.75;;;17.47;100.00
20013;BME280;10167;42.852;23.042;2022-07-23T02:51:11;95184.38;;;17.05;100.00
20013;BME280;10167;42.852;23.042;2022-07-23T02:53:47;95179.56;;;16.57;100.00
20013;BME280;10167;42.852;23.042;2022-07-23T03:01:20;95185.88;;;16.00;100.00
20013;BME280;10167;42.852;23.042;2022-07-23T03:03:47;95185.06;;;15.94;100.00
20013;BME280;10167;42.852;23.042;2022-07-23T03:06:15;95188.78;;;15.93;100.00
20013;BME280;10167;42.852;23.042;2022-07-23T03:08:43;95186.38;;;15.92;100.00
20013;BME280;10167;42.852;23.042;2022-07-23T03:11:10;95186.91;;;15.94;100.00
20013;BME280;10167;42.852;23.042;2022-07-23T03:13:40;95194.38;;;15.92;100.00
20013;BME280;10167;42.852;23.042;2022-07-23T03:16:08;95192.00;;;15.95;100.00
20013;BME280;10167;42.852;23.042;2022-07-23T03:23:36;95198.44;;;16.05;100.00
20013;BME280;10167;42.852;23.042;2022-07-23T03:26:04;95200.88;;;16.11;100.00
20013;BME280;10167;42.852;23.042;2022-07-23T03:28:32;95212.66;;;16.20;100.00
20013;BME280;10167;42.852;23.042;2022-07-23T03:31:00;95212.13;;;16.28;100.00
20013;BME280;10167;42.852;23.042;2022-07-23T03:33:27;95204.63;;;16.25;100.00
20013;BME280;10167;42.852;23.042;2022-07-23T03:35:55;95208.09;;;16.26;100.00
20013;BME280;10167;42.852;23.042;2022-07-23T03:38:26;95202.75;;;16.26;100.00
20013;BME280;10167;42.852;23.042;2022-07-23T03:45:58;95196.66;;;16.46;100.00
20013;BME280;10167;42.852;23.042;2022-07-23T03:48:25;95201.47;;;16.49;100.00
20013;BME280;10167;42.852;23.042;2022-07-23T03:50:53;95201.47;;;16.49;100.00
20013;BME280;10167;42.852;23.042;2022-07-23T03:53:21;95206.81;;;16.49;100.00
20013;BME280;10167;42.852;23.042;2022-07-23T03:55:49;95206.56;;;16.55;100.00
20013;BME280;10167;42.852;23.042;2022-07-23T03:58:16;95210.88;;;16.66;100.00
20013;BME280;10167;42.852;23.042;2022-07-23T04:00:44;95210.84;;;16.72;100.00
20013;BME280;10167;42.852;23.042;2022-07-23T04:08:16;95202.06;;;16.81;100.00
20013;BME280;10167;42.852;23.042;2022-07-23T04:10:50;95198.03;;;16.89;100.00
20013;BME280;10167;42.852;23.042;2022-07-23T04:13:17;95206.84;;;16.94;100.00
20013;BME280;10167;42.852;23.042;2022-07-23T04:15:45;95202.84;;;16.87;100.00
20013;BME280;10167;42.852;23.042;2022-07-23T04:18:13;95217.84;;;16.93;100.00
20013;BME280;10167;42.852;23.042;2022-07-23T04:20:52;95209.50;;;17.04;100.00
20013;BME280;10167;42.852;23.042;2022-07-23T04:23:21;95219.44;;;17.14;100.00
20013;BME280;10167;42.852;23.042;2022-07-23T04:30:56;95210.28;;;17.30;100.00
20013;BME280;10167;42.852;23.042;2022-07-23T04:33:23;95212.94;;;17.40;100.00
20013;BME280;10167;42.852;23.042;2022-07-23T04:35:54;95211.03;;;17.56;100.00
20013;BME280;10167;42.852;23.042;2022-07-23T04:38:22;95211.56;;;17.68;100.00
20013;BME280;10167;42.852;23.042;2022-07-23T04:40:53;95207.78;;;17.74;100.00
20013;BME280;10167;42.852;23.042;2022-07-23T04:43:21;95205.59;;;17.87;100.00
20013;BME280;10167;42.852;23.042;2022-07-23T04:45:50;95211.19;;;17.95;100.00
20013;BME280;10167;42.852;23.042;2022-07-23T04:51:05;95219.28;;;18.39;100.00
20013;BME280;10167;42.852;23.042;2022-07-23T04:53:34;95210.84;;;18.56;100.00
20013;BME280;10167;42.852;23.042;2022-07-23T04:56:05;95218.09;;;18.56;100.00
20013;BME280;10167;42.852;23.042;2022-07-23T04:58:32;95210.84;;;18.56;100.00
20013;BME280;10167;42.852;23.042;2022-07-23T05:01:00;95206.28;;;18.62;100.00
20013;BME280;10167;42.852;23.042;2022-07-23T05:03:30;95206.78;;;18.69;100.00
20013;BME280;10167;42.852;23.042;2022-07-23T05:05:58;95212.53;;;18.86;100.00
20013;BME280;10167;42.852;23.042;2022-07-23T05:13:17;95215.28;;;19.39;100.00
20013;BME280;10167;42.852;23.042;2022-07-23T05:15:45;95218.06;;;19.57;100.00
20013;BME280;10167;42.852;23.042;2022-07-23T05:18:13;95214.44;;;19.72;100.00
20013;BME280;10167;42.852;23.042;2022-07-23T05:20:42;95219.34;;;19.89;100.00
20013;BME280;10167;42.852;23.042;2022-07-23T05:23:13;95219.59;;;20.11;100.00
20013;BME280;10167;42.852;23.042;2022-07-23T05:25:41;95226.63;;;20.31;100.00
20013;BME280;10167;42.852;23.042;2022-07-23T05:28:09;95228.97;;;20.56;100.00
20013;BME280;10167;42.852;23.042;2022-07-23T05:35:39;95225.41;;;21.12;100.00
20013;BME280;10167;42.852;23.042;2022-07-23T05:38:27;95234.47;;;21.21;100.00
20013;BME280;10167;42.852;23.042;2022-07-23T05:40:57;95225.31;;;21.36;100.00
20013;BME280;10167;42.852;23.042;2022-07-23T05:43:25;95230.03;;;21.58;100.00
20013;BME280;10167;42.852;23.042;2022-07-23T05:45:54;95224.38;;;21.73;100.00
20013;BME280;10167;42.852;23.042;2022-07-23T05:48:22;95227.69;;;21.97;100.00
20013;BME280;10167;42.852;23.042;2022-07-23T05:51:13;95231.38;;;22.29;100.00
20013;BME280;10167;42.852;23.042;2022-07-23T05:58:51;95225.72;;;23.02;100.00
20013;BME280;10167;42.852;23.042;2022-07-23T06:01:19;95225.00;;;23.19;100.00
20013;BME280;10167;42.852;23.042;2022-07-23T06:03:57;95225.88;;;23.28;100.00
20013;BME280;10167;42.852;23.042;2022-07-23T06:06:32;95225.34;;;23.48;100.00
20013;BME280;10167;42.852;23.042;2022-07-23T06:09:00;95233.59;;;23.66;100.00
20013;BME280;10167;42.852;23.042;2022-07-23T06:11:28;95228.91;;;23.88;100.00
20013;BME280;10167;42.852;23.042;2022-07-23T06:13:57;95223.84;;;24.27;100.00
20013;BME280;10167;42.852;23.042;2022-07-23T06:21:40;95226.63;;;25.04;100.00
20013;BME280;10167;42.852;23.042;2022-07-23T06:24:14;95214.81;;;25.09;100.00
20013;BME280;10167;42.852;23.042;2022-07-23T06:26:42;95221.34;;;25.25;99.74
20013;BME280;10167;42.852;23.042;2022-07-23T06:29:10;95221.94;;;25.48;98.40
20013;BME280;10167;42.852;23.042;2022-07-23T06:31:38;95221.75;;;25.70;98.99
20013;BME280;10167;42.852;23.042;2022-07-23T06:34:06;95223.91;;;25.94;95.05
20013;BME280;10167;42.852;23.042;2022-07-23T06:36:35;95218.09;;;26.04;96.37
20013;BME280;10167;42.852;23.042;2022-07-23T06:44:02;95218.91;;;26.63;100.00
20013;BME280;10167;42.852;23.042;2022-07-23T06:46:32;95218.22;;;26.87;93.21
20013;BME280;10167;42.852;23.042;2022-07-23T06:49:00;95214.38;;;26.97;90.97
20013;BME280;10167;42.852;23.042;2022-07-23T06:51:29;95213.72;;;27.12;87.57
20013;BME280;10167;42.852;23.042;2022-07-23T06:53:57;95213.38;;;27.34;86.80
20013;BME280;10167;42.852;23.042;2022-07-23T06:56:26;95207.56;;;27.57;83.53
20013;BME280;10167;42.852;23.042;2022-07-23T06:58:54;95207.94;;;27.67;83.37
20013;BME280;10167;42.852;23.042;2022-07-23T07:06:21;95220.16;;;28.18;78.66
20013;BME280;10167;42.852;23.042;2022-07-23T07:08:49;95208.94;;;28.32;82.37
20013;BME280;10167;42.852;23.042;2022-07-23T07:11:17;95211.84;;;28.51;78.34
20013;BME280;10167;42.852;23.042;2022-07-23T07:13:44;95206.94;;;28.45;74.90
20013;BME280;10167;42.852;23.042;2022-07-23T07:16:12;95199.34;;;28.63;81.88
20013;BME280;10167;42.852;23.042;2022-07-23T07:18:40;95201.69;;;28.88;76.68
20013;BME280;10167;42.852;23.042;2022-07-23T07:21:07;95200.75;;;28.97;70.38
20013;BME280;10167;42.852;23.042;2022-07-23T07:28:34;95192.72;;;29.16;75.96
20013;BME280;10167;42.852;23.042;2022-07-23T07:31:02;95197.97;;;29.37;75.82
20013;BME280;10167;42.852;23.042;2022-07-23T07:33:30;95195.81;;;29.58;71.91
20013;BME280;10167;42.852;23.042;2022-07-23T07:35:57;95190.13;;;29.63;72.19
20013;BME280;10167;42.852;23.042;2022-07-23T07:38:27;95194.38;;;29.76;77.80
20013;BME280;10167;42.852;23.042;2022-07-23T07:40:54;95194.28;;;29.88;74.43
20013;BME280;10167;42.852;23.042;2022-07-23T07:43:22;95189.38;;;30.10;69.25
20013;BME280;10167;42.852;23.042;2022-07-23T07:50:49;95193.09;;;30.52;68.20
20013;BME280;10167;42.852;23.042;2022-07-23T07:53:16;95198.03;;;30.62;68.43
20013;BME280;10167;42.852;23.042;2022-07-23T07:55:44;95187.97;;;30.66;71.45
20013;BME280;10167;42.852;23.042;2022-07-23T07:58:18;95184.31;;;30.78;67.83
20013;BME280;10167;42.852;23.042;2022-07-23T08:00:45;95184.97;;;30.91;68.14
20013;BME280;10167;42.852;23.042;2022-07-23T08:03:14;95178.38;;;31.11;70.64
20013;BME280;10167;42.852;23.042;2022-07-23T08:05:42;95176.56;;;31.19;65.78
20013;BME280;10167;42.852;23.042;2022-07-23T08:13:14;95181.03;;;31.46;66.21
20013;BME280;10167;42.852;23.042;2022-07-23T08:15:43;95173.59;;;31.66;61.89
20013;BME280;10167;42.852;23.042;2022-07-23T08:18:13;95169.97;;;31.85;58.19
20013;BME280;10167;42.852;23.042;2022-07-23T08:20:41;95167.56;;;32.02;58.92
20013;BME280;10167;42.852;23.042;2022-07-23T08:23:09;95168.03;;;32.08;61.96
20013;BME280;10167;42.852;23.042;2022-07-23T08:25:38;95166.56;;;32.37;62.81
20013;BME280;10167;42.852;23.042;2022-07-23T08:28:07;95165.28;;;32.57;60.18
20013;BME280;10167;42.852;23.042;2022-07-23T08:35:39;95164.88;;;33.18;52.25
20013;BME280;10167;42.852;23.042;2022-07-23T08:38:08;95155.91;;;33.22;54.61
20013;BME280;10167;42.852;23.042;2022-07-23T08:40:37;95148.84;;;33.21;54.13
20013;BME280;10167;42.852;23.042;2022-07-23T08:43:10;95164.78;;;33.41;48.50
20013;BME280;10167;42.852;23.042;2022-07-23T08:45:39;95152.78;;;33.57;53.88
20013;BME280;10167;42.852;23.042;2022-07-23T08:48:11;95147.03;;;33.69;54.38
20013;BME280;10167;42.852;23.042;2022-07-23T08:50:42;95150.56;;;33.69;48.76
20013;BME280;10167;42.852;23.042;2022-07-23T08:58:14;95150.06;;;33.97;47.63
20013;BME280;10167;42.852;23.042;2022-07-23T09:00:42;95156.81;;;34.10;46.64
20013;BME280;10167;42.852;23.042;2022-07-23T09:03:15;95154.88;;;34.11;48.19
20013;BME280;10167;42.852;23.042;2022-07-23T09:05:43;95153.75;;;34.19;46.70
20013;BME280;10167;42.852;23.042;2022-07-23T09:08:13;95158.53;;;34.26;47.56
20013;BME280;10167;42.852;23.042;2022-07-23T09:10:49;95151.03;;;34.22;52.83
20013;BME280;10167;42.852;23.042;2022-07-23T09:13:30;95149.41;;;34.14;50.83
20013;BME280;10167;42.852;23.042;2022-07-23T09:21:08;95152.09;;;34.62;39.45
20013;BME280;10167;42.852;23.042;2022-07-23T09:23:38;95149.38;;;34.69;43.08
20013;BME280;10167;42.852;23.042;2022-07-23T09:29:03;95141.25;;;34.87;41.28
20013;BME280;10167;42.852;23.042;2022-07-23T09:31:33;95142.13;;;35.12;36.14
20013;BME280;10167;42.852;23.042;2022-07-23T09:34:09;95131.56;;;35.21;38.97
20013;BME280;10167;42.852;23.042;2022-07-23T09:36:38;95136.75;;;35.41;36.98
20013;BME280;10167;42.852;23.042;2022-07-23T09:44:18;95122.59;;;35.42;36.52
20013;BME280;10167;42.852;23.042;2022-07-23T09:46:52;95122.59;;;35.56;33.21
20013;BME280;10167;42.852;23.042;2022-07-23T09:49:24;95124.22;;;35.79;32.94
20013;BME280;10167;42.852;23.042;2022-07-23T09:51:53;95110.44;;;35.89;35.02
20013;BME280;10167;42.852;23.042;2022-07-23T09:54:25;95109.28;;;36.05;35.47
20013;BME280;10167;42.852;23.042;2022-07-23T09:56:53;95114.41;;;35.85;30.41
20013;BME280;10167;42.852;23.042;2022-07-23T09:59:25;95117.94;;;35.75;32.20
20013;BME280;10167;42.852;23.042;2022-07-23T10:04:38;95116.38;;;35.77;31.20
20013;BME280;10167;42.852;23.042;2022-07-23T10:07:34;95097.88;;;35.85;32.01
20013;BME280;10167;42.852;23.042;2022-07-23T10:10:20;95104.56;;;35.98;30.34
20013;BME280;10167;42.852;23.042;2022-07-23T10:13:27;95105.31;;;36.16;30.13
20013;BME280;10167;42.852;23.042;2022-07-23T10:16:13;95104.91;;;36.46;32.10
20013;BME280;10167;42.852;23.042;2022-07-23T10:18:53;95098.97;;;36.51;31.43
20013;BME280;10167;42.852;23.042;2022-07-23T10:26:31;95094.94;;;36.88;29.83
20013;BME280;10167;42.852;23.042;2022-07-23T10:29:12;95101.94;;;37.06;27.61
20013;BME280;10167;42.852;23.042;2022-07-23T10:31:52;95090.06;;;37.24;27.97
20013;BME280;10167;42.852;23.042;2022-07-23T10:34:37;95092.47;;;37.18;25.79
20013;BME280;10167;42.852;23.042;2022-07-23T10:37:14;95088.97;;;37.00;27.61
20013;BME280;10167;42.852;23.042;2022-07-23T10:39:48;95083.53;;;36.82;29.03
20013;BME280;10167;42.852;23.042;2022-07-23T10:47:40;95070.00;;;37.05;29.38
20013;BME280;10167;42.852;23.042;2022-07-23T10:50:24;95069.13;;;37.30;25.11
20013;BME280;10167;42.852;23.042;2022-07-23T10:53:13;95062.72;;;37.43;25.76
20013;BME280;10167;42.852;23.042;2022-07-23T10:55:48;95061.28;;;37.18;23.85
20013;BME280;10167;42.852;23.042;2022-07-23T10:58:21;95064.97;;;36.90;22.63
20013;BME280;10167;42.852;23.042;2022-07-23T11:00:49;95062.66;;;36.78;23.38
20013;BME280;10167;42.852;23.042;2022-07-23T11:06:06;95057.91;;;36.82;24.67
20013;BME280;10167;42.852;23.042;2022-07-23T11:08:34;95049.59;;;36.89;25.84
20013;BME280;10167;42.852;23.042;2022-07-23T11:11:09;95046.34;;;37.04;24.12
20013;BME280;10167;42.852;23.042;2022-07-23T11:13:47;95044.63;;;37.32;25.13
20013;BME280;10167;42.852;23.042;2022-07-23T11:16:21;95036.44;;;37.73;27.86
20013;BME280;10167;42.852;23.042;2022-07-23T11:26:51;95040.88;;;38.11;22.79
20013;BME280;10167;42.852;23.042;2022-07-23T11:29:38;95037.63;;;38.20;22.95
20013;BME280;10167;42.852;23.042;2022-07-23T11:32:31;95040.69;;;38.29;22.83
20013;BME280;10167;42.852;23.042;2022-07-23T11:35:00;95028.63;;;38.12;21.33
20013;BME280;10167;42.852;23.042;2022-07-23T11:37:34;95027.75;;;38.19;22.78
20013;BME280;10167;42.852;23.042;2022-07-23T11:40:05;95024.03;;;38.36;23.05
20013;BME280;10167;42.852;23.042;2022-07-23T11:48:28;95014.38;;;39.12;19.06
20013;BME280;10167;42.852;23.042;2022-07-23T11:50:57;95017.16;;;39.39;18.27
20013;BME280;10167;42.852;23.042;2022-07-23T11:53:25;95016.97;;;39.77;18.27
20013;BME280;10167;42.852;23.042;2022-07-23T11:55:53;95018.34;;;40.12;18.52
20013;BME280;10167;42.852;23.042;2022-07-23T11:58:21;95017.41;;;40.42;18.16
20013;BME280;10167;42.852;23.042;2022-07-23T12:00:49;95013.72;;;40.68;18.32
20013;BME280;10167;42.852;23.042;2022-07-23T12:03:18;95016.50;;;40.88;18.19
20013;BME280;10167;42.852;23.042;2022-07-23T12:10:50;95010.88;;;42.25;17.52
20013;BME280;10167;42.852;23.042;2022-07-23T12:13:20;95016.63;;;42.18;15.86
20013;BME280;10167;42.852;23.042;2022-07-23T12:15:50;95007.94;;;42.16;15.89
20013;BME280;10167;42.852;23.042;2022-07-23T12:18:20;95009.91;;;42.60;16.00
20013;BME280;10167;42.852;23.042;2022-07-23T12:20:50;95007.03;;;42.64;15.42
20013;BME280;10167;42.852;23.042;2022-07-23T12:23:19;94995.53;;;43.03;16.03
20013;BME280;10167;42.852;23.042;2022-07-23T12:25:50;94995.41;;;42.94;15.81
20013;BME280;10167;42.852;23.042;2022-07-23T12:33:25;94991.88;;;42.07;13.31
20013;BME280;10167;42.852;23.042;2022-07-23T12:35:55;94975.91;;;42.24;15.48
20013;BME280;10167;42.852;23.042;2022-07-23T12:38:25;94987.19;;;42.33;14.54
20013;BME280;10167;42.852;23.042;2022-07-23T12:40:55;94984.97;;;43.24;15.34
20013;BME280;10167;42.852;23.042;2022-07-23T12:43:24;94986.63;;;43.08;13.97
20013;BME280;10167;42.852;23.042;2022-07-23T12:45:54;94978.81;;;43.03;14.64
20013;BME280;10167;42.852;23.042;2022-07-23T12:52:15;94975.56;;;42.92;14.94
20013;BME280;10167;42.852;23.042;2022-07-23T12:54:43;94969.47;;;43.10;14.86
20013;BME280;10167;42.852;23.042;2022-07-23T12:57:11;94965.63;;;42.91;15.71
20013;BME280;10167;42.852;23.042;2022-07-23T12:59:40;94958.34;;;43.23;15.63
20013;BME280;10167;42.852;23.042;2022-07-23T13:02:08;94959.22;;;43.32;15.81
20013;BME280;10167;42.852;23.042;2022-07-23T13:04:37;94959.50;;;42.84;15.32
20013;BME280;10167;42.852;23.042;2022-07-23T13:07:05;94958.28;;;42.85;15.09
20013;BME280;10167;42.852;23.042;2022-07-23T13:14:37;94954.44;;;43.20;16.16
20013;BME280;10167;42.852;23.042;2022-07-23T13:17:05;94958.50;;;43.03;16.11
20013;BME280;10167;42.852;23.042;2022-07-23T13:19:34;94949.81;;;43.52;15.28
20013;BME280;10167;42.852;23.042;2022-07-23T13:22:02;94946.06;;;43.45;16.70
20013;BME280;10167;42.852;23.042;2022-07-23T13:24:36;94945.25;;;43.58;15.47
20013;BME280;10167;42.852;23.042;2022-07-23T13:27:06;94942.94;;;43.91;16.30
20013;BME280;10167;42.852;23.042;2022-07-23T13:29:37;94944.19;;;44.24;16.34
20013;BME280;10167;42.852;23.042;2022-07-23T13:36:19;94945.50;;;43.25;16.00
20013;BME280;10167;42.852;23.042;2022-07-23T13:38:46;94944.38;;;43.35;15.81
20013;BME280;10167;42.852;23.042;2022-07-23T13:41:16;94944.22;;;43.77;15.60
20013;BME280;10167;42.852;23.042;2022-07-23T13:43:45;94938.66;;;43.64;15.83
20013;BME280;10167;42.852;23.042;2022-07-23T13:46:14;94938.38;;;43.97;14.79
20013;BME280;10167;42.852;23.042;2022-07-23T13:48:41;94940.53;;;44.36;15.08
20013;BME280;10167;42.852;23.042;2022-07-23T13:51:09;94932.41;;;44.07;15.28
20013;BME280;10167;42.852;23.042;2022-07-23T13:58:15;94937.25;;;43.81;14.80
20013;BME280;10167;42.852;23.042;2022-07-23T14:00:45;94935.44;;;43.53;15.48
20013;BME280;10167;42.852;23.042;2022-07-23T14:03:21;94930.34;;;42.88;16.30
20013;BME280;10167;42.852;23.042;2022-07-23T14:05:50;94925.16;;;42.61;16.85
20013;BME280;10167;42.852;23.042;2022-07-23T14:08:19;94925.66;;;42.85;16.88
20013;BME280;10167;42.852;23.042;2022-07-23T14:10:48;94930.72;;;42.20;17.38
20013;BME280;10167;42.852;23.042;2022-07-23T14:13:17;94924.56;;;41.51;17.64
20013;BME280;10167;42.852;23.042;2022-07-23T14:20:52;94918.91;;;39.90;19.79
20013;BME280;10167;42.852;23.042;2022-07-23T14:23:20;94905.41;;;39.22;19.99
20013;BME280;10167;42.852;23.042;2022-07-23T14:25:48;94913.28;;;39.01;19.83
20013;BME280;10167;42.852;23.042;2022-07-23T14:28:15;94916.44;;;38.72;19.61
20013;BME280;10167;42.852;23.042;2022-07-23T14:30:47;94912.22;;;38.64;19.28
20013;BME280;10167;42.852;23.042;2022-07-23T14:33:14;94909.13;;;38.85;19.86
20013;BME280;10167;42.852;23.042;2022-07-23T14:35:44;94906.84;;;39.31;18.66
20013;BME280;10167;42.852;23.042;2022-07-23T14:43:15;94901.63;;;40.42;17.56
20013;BME280;10167;42.852;23.042;2022-07-23T14:45:43;94896.44;;;40.24;17.14
20013;BME280;10167;42.852;23.042;2022-07-23T14:48:15;94903.69;;;39.55;18.44
20013;BME280;10167;42.852;23.042;2022-07-23T14:50:44;94894.09;;;39.37;18.13
20013;BME280;10167;42.852;23.042;2022-07-23T14:53:12;94890.75;;;38.99;18.59
20013;BME280;10167;42.852;23.042;2022-07-23T14:55:40;94891.22;;;38.67;18.92
20013;BME280;10167;42.852;23.042;2022-07-23T14:58:07;94892.22;;;38.49;18.43
20013;BME280;10167;42.852;23.042;2022-07-23T15:05:02;94879.59;;;37.43;18.46
20013;BME280;10167;42.852;23.042;2022-07-23T15:07:33;94880.22;;;37.17;19.67
20013;BME280;10167;42.852;23.042;2022-07-23T15:10:02;94872.88;;;36.96;20.30
20013;BME280;10167;42.852;23.042;2022-07-23T15:12:30;94872.28;;;36.70;19.25
20013;BME280;10167;42.852;23.042;2022-07-23T15:14:58;94870.81;;;36.52;19.30
20013;BME280;10167;42.852;23.042;2022-07-23T15:17:25;94865.00;;;36.35;19.01
20013;BME280;10167;42.852;23.042;2022-07-23T15:19:53;94868.19;;;36.23;19.42
20013;BME280;10167;42.852;23.042;2022-07-23T15:26:58;94863.25;;;35.86;21.37
20013;BME280;10167;42.852;23.042;2022-07-23T15:29:26;94875.88;;;35.77;21.66
20013;BME280;10167;42.852;23.042;2022-07-23T15:31:55;94862.06;;;35.70;22.40
20013;BME280;10167;42.852;23.042;2022-07-23T15:34:25;94862.88;;;35.59;21.20
20013;BME280;10167;42.852;23.042;2022-07-23T15:36:53;94859.78;;;35.54;21.69
20013;BME280;10167;42.852;23.042;2022-07-23T15:39:20;94859.38;;;35.55;22.90
20013;BME280;10167;42.852;23.042;2022-07-23T15:41:48;94860.59;;;35.33;22.49
20013;BME280;10167;42.852;23.042;2022-07-23T15:49:20;94861.38;;;35.09;22.99
20013;BME280;10167;42.852;23.042;2022-07-23T15:51:47;94853.13;;;35.05;22.50
20013;BME280;10167;42.852;23.042;2022-07-23T15:54:15;94863.38;;;34.98;22.74
20013;BME280;10167;42.852;23.042;2022-07-23T15:56:43;94864.53;;;34.89;23.02
20013;BME280;10167;42.852;23.042;2022-07-23T15:59:11;94862.16;;;34.77;22.42
20013;BME280;10167;42.852;23.042;2022-07-23T16:01:39;94864.91;;;34.77;22.11
20013;BME280;10167;42.852;23.042;2022-07-23T16:04:07;94856.63;;;34.70;23.40
20013;BME280;10167;42.852;23.042;2022-07-23T16:11:01;94864.88;;;34.52;24.08
20013;BME280;10167;42.852;23.042;2022-07-23T16:13:29;94868.78;;;34.48;26.03
20013;BME280;10167;42.852;23.042;2022-07-23T16:15:56;94855.00;;;34.37;24.92
20013;BME280;10167;42.852;23.042;2022-07-23T16:18:25;94862.47;;;34.33;25.69
20013;BME280;10167;42.852;23.042;2022-07-23T16:20:53;94869.09;;;34.25;25.26
20013;BME280;10167;42.852;23.042;2022-07-23T16:23:21;94857.72;;;34.19;23.92
20013;BME280;10167;42.852;23.042;2022-07-23T16:25:49;94861.22;;;34.16;24.79
20013;BME280;10167;42.852;23.042;2022-07-23T16:33:21;94865.88;;;33.95;27.84
20013;BME280;10167;42.852;23.042;2022-07-23T16:35:48;94861.13;;;33.84;27.35
20013;BME280;10167;42.852;23.042;2022-07-23T16:38:16;94847.34;;;33.81;27.17
20013;BME280;10167;42.852;23.042;2022-07-23T16:40:44;94851.66;;;33.75;26.50
20013;BME280;10167;42.852;23.042;2022-07-23T16:43:11;94858.66;;;33.69;27.39